createdAt,value
2019-05-10T00:00:30.822Z,98688.50
2019-05-10T00:03:19.397Z,98684.16
2019-05-10T00:06:06.775Z,98689.23
2019-05-10T00:08:47.494Z,98686.67
2019-05-10T00:11:41.349Z,98690.17
2019-05-10T00:14:33.623Z,98701.44
2019-05-10T00:17:28.555Z,98692.28
2019-05-10T00:19:58.069Z,98694.56
2019-05-10T00:22:27.597Z,98697.45
2019-05-10T00:25:03.951Z,98683.84
2019-05-10T00:27:28.295Z,98691.16
2019-05-10T00:29:57.855Z,98691.64
2019-05-10T00:32:27.337Z,98684.06
2019-05-10T00:34:56.869Z,98675.98
2019-05-10T00:37:26.299Z,98677.67
2019-05-10T00:39:55.814Z,98672.98
2019-05-10T00:42:25.247Z,98685.86
2019-05-10T00:44:54.788Z,98682.25
2019-05-10T00:47:24.213Z,98682.64
2019-05-10T00:49:53.697Z,98677.09
2019-05-10T00:52:23.175Z,98670.48
2019-05-10T00:54:52.737Z,98670.95
2019-05-10T00:57:22.136Z,98667.70
2019-05-10T00:59:51.629Z,98665.90
2019-05-10T01:02:21.166Z,98670.45
2019-05-10T01:04:50.632Z,98670.08
2019-05-10T01:07:20.102Z,98656.86
2019-05-10T01:09:49.573Z,98653.59
2019-05-10T01:12:19.052Z,98645.03
2019-05-10T01:14:48.550Z,98642.84
2019-05-10T01:17:17.989Z,98650.70
2019-05-10T01:19:47.558Z,98660.09
2019-05-10T01:22:17.065Z,98668.52
2019-05-10T01:24:46.648Z,98670.72
2019-05-10T01:27:16.161Z,98677.70
2019-05-10T01:29:45.686Z,98661.92
2019-05-10T01:32:15.294Z,98661.66
2019-05-10T01:34:44.797Z,98655.88
2019-05-10T01:37:14.283Z,98660.33
2019-05-10T01:39:43.753Z,98655.89
2019-05-10T01:42:13.227Z,98654.94
2019-05-10T01:44:42.922Z,98655.39
2019-05-10T01:47:12.448Z,98657.34
2019-05-10T01:49:41.894Z,98655.88
2019-05-10T01:52:11.284Z,98638.17
2019-05-10T01:54:40.780Z,98645.76
2019-05-10T01:57:10.265Z,98641.42
2019-05-10T01:59:39.751Z,98656.59
2019-05-10T02:02:09.299Z,98662.02
2019-05-10T02:04:38.824Z,98658.52
2019-05-10T02:07:08.212Z,98664.06
2019-05-10T02:09:37.696Z,98660.09
2019-05-10T02:12:07.180Z,98663.94
2019-05-10T02:14:36.615Z,98677.19
2019-05-10T02:17:06.122Z,98675.27
2019-05-10T02:19:35.572Z,98671.53
2019-05-10T02:22:05.057Z,98674.69
2019-05-10T02:24:34.638Z,98675.30
2019-05-10T02:27:04.029Z,98667.95
2019-05-10T02:29:33.467Z,98667.20
2019-05-10T02:32:02.996Z,98669.58
2019-05-10T02:34:32.767Z,98673.31
2019-05-10T02:37:02.152Z,98678.12
2019-05-10T02:39:31.705Z,98677.64
2019-05-10T02:42:01.793Z,98677.28
2019-05-10T02:44:31.207Z,98679.77
2019-05-10T02:47:00.649Z,98681.42
2019-05-10T02:49:30.171Z,98682.37
2019-05-10T02:51:59.658Z,98687.03
2019-05-10T02:54:29.219Z,98690.16
2019-05-10T02:56:59.511Z,98695.21
2019-05-10T02:59:29.855Z,98701.23
2019-05-10T03:02:00.825Z,98709.05
2019-05-10T03:04:30.558Z,98713.75
2019-05-10T03:07:07.359Z,98709.89
2019-05-10T03:09:36.898Z,98700.63
2019-05-10T03:12:26.668Z,98696.37
2019-05-10T03:14:57.962Z,98703.28
2019-05-10T03:17:28.666Z,98699.59
2019-05-10T03:19:59.708Z,98696.11
2019-05-10T03:22:29.144Z,98696.47
2019-05-10T03:24:58.703Z,98693.45
2019-05-10T03:27:28.220Z,98688.03
2019-05-10T03:29:57.653Z,98690.52
2019-05-10T03:32:27.116Z,98685.53
2019-05-10T03:34:56.614Z,98686.01
2019-05-10T03:37:26.456Z,98686.81
2019-05-10T03:39:55.876Z,98683.20
2019-05-10T03:42:25.407Z,98692.69
2019-05-10T03:44:54.931Z,98703.17
2019-05-10T03:47:24.427Z,98705.75
2019-05-10T03:49:53.882Z,98709.06
2019-05-10T03:52:23.265Z,98702.53
2019-05-10T03:54:52.723Z,98706.94
2019-05-10T03:57:22.237Z,98693.84
2019-05-10T03:59:51.808Z,98703.18
2019-05-10T04:02:21.287Z,98703.20
2019-05-10T04:04:50.755Z,98708.88
2019-05-10T04:07:20.182Z,98710.36
2019-05-10T04:09:49.685Z,98709.86
2019-05-10T04:12:19.210Z,98712.41
2019-05-10T04:14:48.754Z,98717.34
2019-05-10T04:17:18.145Z,98716.95
2019-05-10T04:19:47.631Z,98718.63
2019-05-10T04:22:17.118Z,98724.56
2019-05-10T04:24:46.555Z,98722.22
2019-05-10T04:27:30.661Z,98719.13
2019-05-10T04:29:47.189Z,98716.99
2019-05-10T04:32:16.693Z,98724.84
2019-05-10T04:34:46.183Z,98727.98
2019-05-10T04:37:16.106Z,98727.53
2019-05-10T04:39:45.591Z,98733.44
2019-05-10T04:42:15.241Z,98722.08
2019-05-10T04:44:44.706Z,98725.02
2019-05-10T04:47:14.193Z,98731.85
2019-05-10T04:49:43.653Z,98727.55
2019-05-10T04:52:14.381Z,98722.77
2019-05-10T04:54:43.838Z,98726.02
2019-05-10T04:57:13.364Z,98719.20
2019-05-10T04:59:42.798Z,98719.20
2019-05-10T05:02:12.191Z,98727.14
2019-05-10T05:04:41.665Z,98728.92
2019-05-10T05:07:11.354Z,98728.92
2019-05-10T05:09:40.786Z,98720.22
2019-05-10T05:12:10.409Z,98720.22
2019-05-10T05:14:39.861Z,98733.33
2019-05-10T05:17:09.349Z,98733.33
2019-05-10T05:19:40.879Z,98730.48
2019-05-10T05:22:10.025Z,98734.08
2019-05-10T05:24:39.470Z,98730.38
2019-05-10T05:27:08.896Z,98735.34
2019-05-10T05:29:38.361Z,98723.08
2019-05-10T05:32:18.239Z,98724.61
2019-05-10T05:34:47.680Z,98719.36
2019-05-10T05:37:17.080Z,98720.79
2019-05-10T05:39:46.566Z,98728.27
2019-05-10T05:42:16.086Z,98731.19
2019-05-10T05:44:45.525Z,98735.02
2019-05-10T05:47:14.982Z,98735.73
2019-05-10T05:49:44.478Z,98741.00
2019-05-10T05:52:13.961Z,98734.50
2019-05-10T05:54:43.432Z,98726.88
2019-05-10T05:57:12.859Z,98730.66
2019-05-10T05:59:42.319Z,98731.70
2019-05-10T06:02:11.805Z,98734.64
2019-05-10T06:04:46.154Z,98733.41
2019-05-10T06:07:12.497Z,98736.21
2019-05-10T06:09:42.096Z,98731.79
2019-05-10T06:12:12.617Z,98737.41
2019-05-10T06:14:48.910Z,98739.03
2019-05-10T06:17:14.163Z,98739.27
2019-05-10T06:19:43.587Z,98741.17
2019-05-10T06:22:12.984Z,98745.25
2019-05-10T06:24:46.661Z,98743.24
2019-05-10T06:27:13.723Z,98736.65
2019-05-10T06:29:43.338Z,98739.20
2019-05-10T06:32:12.782Z,98727.84
2019-05-10T06:34:42.244Z,98730.86
2019-05-10T06:37:11.841Z,98733.08
2019-05-10T06:39:41.298Z,98746.02
2019-05-10T06:42:10.736Z,98743.98
2019-05-10T06:44:40.173Z,98743.98
2019-05-10T06:47:11.339Z,98739.23
2019-05-10T06:49:50.488Z,98746.25
2019-05-10T06:52:15.899Z,98755.70
2019-05-10T06:54:43.428Z,98760.64
2019-05-10T06:57:17.660Z,98765.05
2019-05-10T06:59:44.100Z,98763.70
2019-05-10T07:02:13.637Z,98760.48
2019-05-10T07:04:43.071Z,98761.03
2019-05-10T07:07:22.119Z,98761.03
2019-05-10T07:10:04.150Z,98767.50
2019-05-10T07:12:17.783Z,98765.64
2019-05-10T07:14:46.750Z,98773.13
2019-05-10T07:17:16.392Z,98773.13
2019-05-10T07:19:53.560Z,98762.40
2019-05-10T07:22:21.785Z,98777.43
2019-05-10T07:24:48.200Z,98777.41
2019-05-10T07:27:17.671Z,98786.40
2019-05-10T07:29:47.111Z,98785.10
2019-05-10T07:32:21.769Z,98792.46
2019-05-10T07:34:48.838Z,98798.34
2019-05-10T07:37:19.804Z,98790.48
2019-05-10T07:39:49.217Z,98799.27
2019-05-10T07:42:18.622Z,98800.45
2019-05-10T07:44:48.810Z,98798.67
2019-05-10T07:47:18.599Z,98797.64
2019-05-10T07:49:48.023Z,98787.41
2019-05-10T07:52:17.437Z,98793.38
2019-05-10T07:54:47.835Z,98811.09
2019-05-10T07:57:18.754Z,98801.36
2019-05-10T07:59:51.119Z,98807.55
2019-05-10T08:02:19.762Z,98816.63
2019-05-10T08:04:53.017Z,98821.05
2019-05-10T08:07:20.433Z,98826.92
2019-05-10T08:09:49.906Z,98823.56
2019-05-10T08:12:19.611Z,98829.61
2019-05-10T08:14:53.393Z,98831.15
2019-05-10T08:17:20.502Z,98826.32
2019-05-10T08:19:49.931Z,98818.44
2019-05-10T08:22:19.352Z,98831.32
2019-05-10T08:24:54.487Z,98834.59
2019-05-10T08:27:20.016Z,98835.48
2019-05-10T08:29:52.880Z,98833.59
2019-05-10T08:32:25.553Z,98833.92
2019-05-10T08:34:55.573Z,98829.66
2019-05-10T08:37:33.083Z,98828.20
2019-05-10T08:39:56.055Z,98820.36
2019-05-10T08:42:40.810Z,98820.92
2019-05-10T08:45:03.755Z,98823.97
2019-05-10T08:47:28.093Z,98825.09
2019-05-10T08:50:12.137Z,98834.37
2019-05-10T08:52:31.674Z,98830.73
2019-05-10T08:55:02.484Z,98839.25
2019-05-10T08:57:34.879Z,98829.89
2019-05-10T09:00:08.481Z,98835.75
2019-05-10T09:02:33.618Z,98822.50
2019-05-10T09:05:03.106Z,98823.70
2019-05-10T09:07:36.985Z,98821.41
2019-05-10T09:10:04.246Z,98821.11
2019-05-10T09:12:33.724Z,98823.86
2019-05-10T09:15:09.690Z,98822.07
2019-05-10T09:17:34.302Z,98818.78
2019-05-10T09:20:03.981Z,98808.70
2019-05-10T09:22:38.373Z,98821.17
2019-05-10T09:25:05.091Z,98822.02
2019-05-10T09:27:34.718Z,98818.02
2019-05-10T09:30:08.212Z,98802.85
2019-05-10T09:32:35.456Z,98818.17
2019-05-10T09:35:07.614Z,98812.86
2019-05-10T09:37:36.161Z,98810.73
2019-05-10T09:40:09.862Z,98806.73
2019-05-10T09:42:40.184Z,98809.92
2019-05-10T09:45:09.831Z,98813.85
2019-05-10T09:47:39.460Z,98802.95
2019-05-10T09:50:09.192Z,98815.12
2019-05-10T09:52:38.627Z,98799.80
2019-05-10T09:55:12.470Z,98802.85
2019-05-10T09:57:39.377Z,98805.98
2019-05-10T10:00:10.720Z,98802.08
2019-05-10T10:02:40.618Z,98801.36
2019-05-10T10:05:10.632Z,98804.70
2019-05-10T10:07:40.050Z,98817.75
2019-05-10T10:10:12.816Z,98802.53
2019-05-10T10:12:41.129Z,98804.42
2019-05-10T10:15:18.634Z,98804.08
2019-05-10T10:17:42.615Z,98805.92
2019-05-10T10:20:12.317Z,98807.43
2019-05-10T10:22:43.413Z,98794.91
2019-05-10T10:25:13.076Z,98796.17
2019-05-10T10:27:42.474Z,98788.61
2019-05-10T10:30:17.772Z,98783.23
2019-05-10T10:32:44.629Z,98781.89
2019-05-10T10:35:20.546Z,98775.08
2019-05-10T10:37:47.617Z,98782.98
2019-05-10T10:40:18.313Z,98766.17
2019-05-10T10:42:48.717Z,98769.05
2019-05-10T10:45:18.596Z,98772.55
2019-05-10T10:47:48.095Z,98768.19
2019-05-10T10:50:18.326Z,98774.03
2019-05-10T10:52:47.780Z,98774.64
2019-05-10T10:55:18.736Z,98785.38
2019-05-10T10:57:48.366Z,98777.86
2019-05-10T11:00:23.687Z,98782.09
2019-05-10T11:02:53.736Z,98773.70
2019-05-10T11:05:23.276Z,98778.41
2019-05-10T11:07:52.796Z,98785.27
2019-05-10T11:10:28.092Z,98778.91
2019-05-10T11:13:02.746Z,98775.95
2019-05-10T11:15:35.528Z,98769.22
2019-05-10T11:18:00.586Z,98773.58
2019-05-10T11:20:31.749Z,98770.97
2019-05-10T11:23:01.506Z,98773.67
2019-05-10T11:25:31.005Z,98770.50
2019-05-10T11:28:01.699Z,98771.31
2019-05-10T11:30:32.555Z,98776.83
2019-05-10T11:33:02.204Z,98777.30
2019-05-10T11:35:34.461Z,98780.71
2019-05-10T11:38:06.725Z,98776.83
2019-05-10T11:40:35.235Z,98782.70
2019-05-10T11:43:05.004Z,98782.55
2019-05-10T11:45:35.287Z,98784.23
2019-05-10T11:48:05.998Z,98788.40
2019-05-10T11:50:35.799Z,98780.98
2019-05-10T11:53:06.992Z,98771.59
2019-05-10T11:55:40.250Z,98772.91
2019-05-10T11:58:12.243Z,98768.08
2019-05-10T12:00:41.201Z,98765.78
2019-05-10T12:03:15.544Z,98773.00
2019-05-10T12:05:42.558Z,98773.66
2019-05-10T12:08:13.231Z,98787.45
2019-05-10T12:10:53.030Z,98763.80
2019-05-10T12:13:19.405Z,98767.20
2019-05-10T12:15:45.225Z,98759.09
2019-05-10T12:18:15.188Z,98764.00
2019-05-10T12:20:54.849Z,98766.17
2019-05-10T12:23:23.129Z,98766.02
2019-05-10T12:26:19.913Z,98775.20
2019-05-10T12:28:23.975Z,98769.67
2019-05-10T12:30:51.112Z,98771.73
2019-05-10T12:33:25.247Z,98769.87
2019-05-10T12:35:51.974Z,98749.89
2019-05-10T12:38:23.526Z,98758.97
2019-05-10T12:40:52.586Z,98769.02
2019-05-10T12:43:22.198Z,98759.27
2019-05-10T12:45:51.961Z,98767.85
2019-05-10T12:48:23.625Z,98758.92
2019-05-10T12:50:57.970Z,98761.27
2019-05-10T12:53:23.989Z,98752.77
2019-05-10T12:55:53.392Z,98757.83
2019-05-10T12:58:22.839Z,98750.95
2019-05-10T13:00:53.302Z,98751.64
2019-05-10T13:03:25.435Z,98736.96
2019-05-10T13:05:54.894Z,98744.34
2019-05-10T13:08:24.310Z,98739.44
2019-05-10T13:10:53.819Z,98737.82
2019-05-10T13:13:29.296Z,98737.70
2019-05-10T13:15:54.464Z,98731.70
2019-05-10T13:18:48.229Z,98733.98
2019-05-10T13:20:55.110Z,98745.20
2019-05-10T13:23:24.721Z,98744.17
2019-05-10T13:25:54.143Z,98750.15
2019-05-10T13:28:23.565Z,98745.42
2019-05-10T13:30:53.065Z,98760.38
2019-05-10T13:33:28.856Z,98749.94
2019-05-10T13:35:56.413Z,98772.70
2019-05-10T13:38:24.891Z,98741.91
2019-05-10T13:40:54.373Z,98754.36
2019-05-10T13:43:26.647Z,98764.63
2019-05-10T13:45:55.046Z,98745.15
2019-05-10T13:48:26.367Z,98765.69
2019-05-10T13:50:55.843Z,98760.33
2019-05-10T13:53:25.336Z,98758.08
2019-05-10T13:55:54.736Z,98777.20
2019-05-10T13:58:24.167Z,98747.17
2019-05-10T14:00:53.649Z,98765.52
2019-05-10T14:03:23.028Z,98765.84
2019-05-10T14:05:52.604Z,98766.34
2019-05-10T14:08:22.094Z,98758.64
2019-05-10T14:10:55.918Z,98780.80
2019-05-10T14:13:22.667Z,98766.30
2019-05-10T14:15:52.133Z,98763.27
2019-05-10T14:18:21.648Z,98768.61
2019-05-10T14:20:51.090Z,98771.31
2019-05-10T14:23:20.481Z,98777.85
2019-05-10T14:25:50.006Z,98772.02
2019-05-10T14:28:19.532Z,98778.12
2019-05-10T14:30:57.200Z,98779.44
2019-05-10T14:33:20.026Z,98768.03
2019-05-10T14:35:49.546Z,98774.75
2019-05-10T14:38:22.553Z,98788.17
2019-05-10T14:40:50.159Z,98777.77
2019-05-10T14:43:19.759Z,98777.45
2019-05-10T14:45:49.055Z,98784.67
2019-05-10T14:48:28.001Z,98785.84
2019-05-10T14:50:49.705Z,98777.94
2019-05-10T14:53:19.976Z,98791.72
2019-05-10T14:55:50.434Z,98786.84
2019-05-10T14:58:19.933Z,98785.84
2019-05-10T15:00:49.583Z,98790.19
2019-05-10T15:03:19.061Z,98786.00
2019-05-10T15:05:54.039Z,98802.61
2019-05-10T15:08:18.956Z,98793.38
2019-05-10T15:10:48.518Z,98793.20
2019-05-10T15:13:19.531Z,98779.45
2019-05-10T15:15:49.531Z,98794.38
2019-05-10T15:18:18.915Z,98793.05
2019-05-10T15:20:48.512Z,98794.51
2019-05-10T15:23:17.910Z,98802.91
2019-05-10T15:25:56.524Z,98805.89
2019-05-10T15:28:18.752Z,98800.70
2019-05-10T15:30:52.357Z,98811.91
2019-05-10T15:33:19.241Z,98809.90
2019-05-10T15:35:51.985Z,98812.89
2019-05-10T15:38:19.953Z,98814.16
2019-05-10T15:40:49.374Z,98837.58
2019-05-10T15:43:19.142Z,98834.08
2019-05-10T15:45:52.336Z,98835.19
2019-05-10T15:48:19.917Z,98850.37
2019-05-10T15:50:49.337Z,98850.63
2019-05-10T15:53:24.805Z,98843.75
2019-05-10T15:55:49.939Z,98849.95
2019-05-10T15:58:19.562Z,98857.02
2019-05-10T16:00:50.146Z,98853.67
2019-05-10T16:03:19.613Z,98852.65
2019-05-10T16:06:00.470Z,98862.44
2019-05-10T16:08:24.056Z,98851.77
2019-05-10T16:10:51.377Z,98867.45
2019-05-10T16:13:24.725Z,98869.55
2019-05-10T16:15:57.631Z,98870.20
2019-05-10T16:18:23.123Z,98878.15
2019-05-10T16:20:52.639Z,98891.52
2019-05-10T16:23:22.106Z,98881.95
2019-05-10T16:25:51.691Z,98881.61
2019-05-10T16:28:22.943Z,98878.96
2019-05-10T16:30:52.331Z,98886.97
2019-05-10T16:33:21.812Z,98885.91
2019-05-10T16:35:52.050Z,98890.64
2019-05-10T16:38:21.706Z,98895.55
2019-05-10T16:40:58.549Z,98898.98
2019-05-10T16:43:24.979Z,98899.64
2019-05-10T16:45:54.488Z,98907.48
2019-05-10T16:48:28.083Z,98917.02
2019-05-10T16:50:55.821Z,98913.88
2019-05-10T16:53:25.205Z,98921.28
2019-05-10T16:55:54.703Z,98914.20
2019-05-10T16:58:24.240Z,98920.56
2019-05-10T17:00:53.624Z,98916.70
2019-05-10T17:03:23.043Z,98925.84
2019-05-10T17:05:53.927Z,98928.89
2019-05-10T17:08:23.779Z,98937.61
2019-05-10T17:10:53.186Z,98938.88
2019-05-10T17:13:22.603Z,98946.53
2019-05-10T17:15:52.086Z,98946.47
2019-05-10T17:18:23.997Z,98944.78
2019-05-10T17:20:52.894Z,98944.36
2019-05-10T17:23:22.379Z,98946.66
2019-05-10T17:25:51.777Z,98949.64
2019-05-10T17:28:21.360Z,98950.94
2019-05-10T17:30:51.244Z,98942.64
2019-05-10T17:33:21.034Z,98944.13
2019-05-10T17:35:52.168Z,98946.42
2019-05-10T17:38:22.196Z,98952.88
2019-05-10T17:40:51.688Z,98952.69
2019-05-10T17:43:22.860Z,98957.84
2019-05-10T17:45:52.370Z,98951.08
2019-05-10T17:48:21.768Z,98961.08
2019-05-10T17:50:51.590Z,98961.88
2019-05-10T17:53:21.086Z,98961.30
2019-05-10T17:55:55.710Z,98962.86
2019-05-10T17:58:21.755Z,98969.34
2019-05-10T18:00:51.285Z,98978.22
2019-05-10T18:03:20.791Z,98978.22
2019-05-10T18:05:53.349Z,98978.14
2019-05-10T18:08:21.707Z,98970.12
2019-05-10T18:10:51.127Z,98982.15
2019-05-10T18:13:20.559Z,98985.55
2019-05-10T18:15:50.050Z,98985.55
2019-05-10T18:18:19.582Z,98988.37
2019-05-10T18:20:49.017Z,98988.64
2019-05-10T18:23:21.084Z,98993.08
2019-05-10T18:26:00.368Z,98996.45
2019-05-10T18:28:29.904Z,99005.25
2019-05-10T18:30:59.294Z,99008.27
2019-05-10T18:33:28.748Z,99006.38
2019-05-10T18:35:58.324Z,99006.38
2019-05-10T18:38:30.957Z,99005.04
2019-05-10T18:40:58.976Z,99017.31
2019-05-10T18:43:28.363Z,99012.76
2019-05-10T18:46:01.225Z,99014.92
2019-05-10T18:48:29.098Z,99012.53
2019-05-10T18:50:58.507Z,99010.75
2019-05-10T18:53:27.928Z,99020.63
2019-05-10T18:55:57.468Z,99023.45
2019-05-10T18:58:29.096Z,99021.66
2019-05-10T19:01:00.711Z,99023.56
2019-05-10T19:03:33.857Z,99032.80
2019-05-10T19:06:04.060Z,99030.44
2019-05-10T19:08:31.771Z,99032.06
2019-05-10T19:11:01.671Z,99036.77
2019-05-10T19:13:34.307Z,99030.84
2019-05-10T19:16:03.398Z,99031.40
2019-05-10T19:18:32.967Z,99038.34
2019-05-10T19:21:02.602Z,99028.41
2019-05-10T19:23:32.658Z,99028.77
2019-05-10T19:26:02.611Z,99036.14
2019-05-10T19:28:32.035Z,99030.88
2019-05-10T19:31:01.571Z,99039.09
2019-05-10T19:33:36.376Z,99034.59
2019-05-10T19:36:02.252Z,99032.98
2019-05-10T19:38:33.983Z,99030.52
2019-05-10T19:41:03.515Z,99037.02
2019-05-10T19:43:33.029Z,99038.06
2019-05-10T19:46:02.497Z,99039.75
2019-05-10T19:48:35.583Z,99040.03
2019-05-10T19:51:09.471Z,99044.80
2019-05-10T19:53:36.610Z,99048.98
2019-05-10T19:56:05.513Z,99048.48
2019-05-10T19:58:34.931Z,99044.62
2019-05-10T20:01:04.475Z,99049.47
2019-05-10T20:03:33.898Z,99049.77
2019-05-10T20:06:03.387Z,99042.75
2019-05-10T20:08:32.922Z,99049.20
2019-05-10T20:11:02.463Z,99049.50
2019-05-10T20:13:31.866Z,99054.64
2019-05-10T20:16:01.715Z,99057.36
2019-05-10T20:18:31.789Z,99069.14
2019-05-10T20:21:01.229Z,99064.31
2019-05-10T20:23:30.642Z,99056.36
2019-05-10T20:26:00.338Z,99059.64
2019-05-10T20:28:29.854Z,99060.86
2019-05-10T20:30:59.298Z,99063.30
2019-05-10T20:33:28.702Z,99063.08
2019-05-10T20:35:58.230Z,99069.03
2019-05-10T20:38:27.761Z,99074.15
2019-05-10T20:40:57.158Z,99076.95
2019-05-10T20:43:26.653Z,99073.57
2019-05-10T20:45:56.081Z,99078.77
2019-05-10T20:48:25.606Z,99078.68
2019-05-10T20:50:55.135Z,99080.28
2019-05-10T20:53:24.691Z,99081.22
2019-05-10T20:55:54.162Z,99083.17
2019-05-10T20:58:23.566Z,99083.04
2019-05-10T21:00:53.185Z,99085.48
2019-05-10T21:03:22.695Z,99093.96
2019-05-10T21:05:54.387Z,99090.36
2019-05-10T21:08:23.829Z,99088.22
2019-05-10T21:10:53.314Z,99082.05
2019-05-10T21:13:22.821Z,99085.91
2019-05-10T21:15:52.259Z,99086.78
2019-05-10T21:18:21.675Z,99083.77
2019-05-10T21:20:53.231Z,99092.49
2019-05-10T21:23:22.674Z,99098.92
2019-05-10T21:25:52.535Z,99096.48
2019-05-10T21:28:22.031Z,99104.86
2019-05-10T21:30:53.640Z,99098.69
2019-05-10T21:33:22.740Z,99108.70
2019-05-10T21:35:52.353Z,99108.02
2019-05-10T21:38:32.474Z,99113.34
2019-05-10T21:40:53.012Z,99112.23
2019-05-10T21:43:22.413Z,99119.01
2019-05-10T21:45:51.958Z,99117.66
2019-05-10T21:48:21.450Z,99118.51
2019-05-10T21:50:50.936Z,99120.56
2019-05-10T21:53:20.375Z,99116.46
2019-05-10T21:55:49.867Z,99118.01
2019-05-10T21:58:19.354Z,99124.89
2019-05-10T22:00:52.369Z,99118.23
2019-05-10T22:03:21.982Z,99125.02
2019-05-10T22:05:51.474Z,99121.14
2019-05-10T22:08:21.091Z,99122.84
2019-05-10T22:10:50.583Z,99130.34
2019-05-10T22:13:20.081Z,99127.69
2019-05-10T22:15:50.619Z,99133.25
2019-05-10T22:18:20.101Z,99132.14
2019-05-10T22:20:49.664Z,99127.66
2019-05-10T22:23:19.194Z,99133.34
2019-05-10T22:25:48.706Z,99128.99
2019-05-10T22:28:18.110Z,99131.05
2019-05-10T22:30:47.634Z,99137.34
2019-05-10T22:33:17.135Z,99141.09
2019-05-10T22:35:46.536Z,99138.77
2019-05-10T22:38:15.987Z,99137.46
2019-05-10T22:40:45.479Z,99131.66
2019-05-10T22:43:14.889Z,99136.01
2019-05-10T22:45:44.436Z,99133.34
2019-05-10T22:48:13.939Z,99136.61
2019-05-10T22:50:43.455Z,99135.18
2019-05-10T22:53:12.925Z,99136.74
2019-05-10T22:55:42.418Z,99127.69
2019-05-10T22:58:11.913Z,99133.50
2019-05-10T23:00:41.371Z,99129.02
2019-05-10T23:03:10.885Z,99131.94
2019-05-10T23:05:40.390Z,99129.66
2019-05-10T23:08:09.921Z,99130.98
2019-05-10T23:10:39.405Z,99130.02
2019-05-10T23:13:08.817Z,99130.00
2019-05-10T23:15:38.467Z,99131.08
2019-05-10T23:18:07.986Z,99126.34
2019-05-10T23:20:37.386Z,99137.36
2019-05-10T23:23:06.925Z,99132.84
2019-05-10T23:25:36.327Z,99130.67
2019-05-10T23:28:05.734Z,99129.34
2019-05-10T23:30:35.262Z,99126.41
2019-05-10T23:33:06.139Z,99131.74
2019-05-10T23:35:35.683Z,99133.20
2019-05-10T23:38:05.237Z,99137.69
2019-05-10T23:40:34.773Z,99132.72
2019-05-10T23:43:04.297Z,99137.91
2019-05-10T23:45:33.938Z,99142.43
2019-05-10T23:48:03.466Z,99137.10
2019-05-10T23:50:33.049Z,99129.95
2019-05-10T23:53:02.612Z,99140.13
2019-05-10T23:55:32.121Z,99139.77
2019-05-10T23:58:01.632Z,99137.69
